Time;durP1;ratioP1;P1;durP2;ratioP2;P2;SDS_P1;SDS_P2;PMS_P1;PMS_P2;Temp;Humidity;BMP_temperature;BMP_pressure;BME280_temperature;BME280_humidity;BME280_pressure;Samples;Min_cycle;Max_cycle;Signal;HPM_P1;HPM_P2
2022/08/12 00:44:48;;;;;;;8.57;3.80;;;;;;;-148.88;47.47;75204.47;4978336;28;20497;-87
2022/08/12 00:47:46;;;;;;;5.55;3.30;;;;;;;-148.88;47.08;75196.34;4977204;28;20047;-88
2022/08/12 00:50:18;;;;;;;5.80;2.92;;;;;;;-148.88;47.27;75202.44;4972430;28;20034;-85
2022/08/12 00:52:54;;;;;;;7.90;3.33;;;;;;;-148.88;47.49;75208.53;4977005;28;20015;-87
2022/08/12 00:56:04;;;;;;;9.15;3.45;;;;;;;-148.88;47.57;75212.59;4977134;28;20288;-86
2022/08/12 00:58:17;;;;;;;6.32;2.90;;;;;;;-148.88;48.06;75220.72;4974390;28;20042;-88
2022/08/12 01:00:48;;;;;;;4.22;2.70;;;;;;;-148.88;47.84;75214.63;4976379;28;20089;-88
2022/08/12 01:03:24;;;;;;;5.72;2.65;;;;;;;-148.88;47.73;75220.72;4977183;28;20377;-87
2022/08/12 01:11:36;;;;;;;5.43;3.00;;;;;;;-148.88;47.60;75230.88;4978311;28;20033;-86
2022/08/12 01:14:04;;;;;;;4.50;2.67;;;;;;;-148.88;47.64;75226.81;4976379;28;20023;-86
2022/08/12 01:16:29;;;;;;;5.97;3.47;;;;;;;-148.88;47.85;75236.97;4975724;28;20042;-85
2022/08/12 01:18:56;;;;;;;5.47;3.40;;;;;;;-148.88;48.03;75236.97;4976150;28;20460;-87
2022/08/12 01:22:15;;;;;;;4.45;3.00;;;;;;;-148.88;48.02;75232.91;4977259;28;20102;-87
2022/08/12 01:25:11;;;;;;;4.07;2.88;;;;;;;-148.88;48.05;75241.03;4960425;28;20047;-86
2022/08/12 01:27:39;;;;;;;6.25;3.10;;;;;;;-148.88;48.07;75241.03;4992514;28;20041;-86
2022/08/12 01:30:08;;;;;;;6.90;3.03;;;;;;;-148.88;48.89;75271.50;4992203;28;20027;-87
2022/08/12 01:32:37;;;;;;;5.80;2.53;;;;;;;-148.88;48.74;75265.41;4977017;28;20030;-87
2022/08/12 01:35:10;;;;;;;5.05;2.60;;;;;;;-148.88;49.04;75273.53;4977116;28;20084;-87
2022/08/12 01:37:54;;;;;;;5.55;3.00;;;;;;;-148.88;49.73;75306.00;4975895;28;20034;-86
2022/08/12 01:40:26;;;;;;;5.47;2.80;;;;;;;-148.88;50.64;75330.38;4975728;28;20073;-87
2022/08/12 01:42:57;;;;;;;3.92;2.83;;;;;;;-148.88;50.79;75322.25;4977312;28;20033;-87
2022/08/12 01:45:25;;;;;;;3.97;2.90;;;;;;;-148.88;50.87;75324.28;4990731;28;20038;-86
2022/08/12 01:48:23;;;;;;;4.78;3.00;;;;;;;-148.88;51.45;75320.22;4976680;28;20038;-86
2022/08/12 01:51:34;;;;;;;5.45;3.00;;;;;;;-148.88;51.38;75328.34;4992044;28;20489;-86
2022/08/12 01:54:05;;;;;;;8.10;3.13;;;;;;;-148.88;51.86;75326.31;4992852;28;20117;-85
2022/08/12 01:56:42;;;;;;;5.13;2.95;;;;;;;-148.88;51.64;75334.44;4976756;28;20054;-86
2022/08/12 02:01:55;;;;;;;6.32;2.95;;;;;;;-148.88;52.09;75350.69;4977141;28;20126;-86
2022/08/12 02:13:29;;;;;;;6.13;3.40;;;;;;;-148.88;55.21;75431.94;4976449;28;20042;-88
2022/08/12 02:16:39;;;;;;;6.00;3.47;;;;;;;-148.88;55.59;75433.97;4976560;28;20046;-87
2022/08/12 02:19:41;;;;;;;6.38;3.50;;;;;;;-148.88;56.08;75438.03;4971119;28;20037;-86
2022/08/12 02:22:32;;;;;;;6.82;3.83;;;;;;;-148.88;56.52;75442.09;4975115;28;20023;-87
2022/08/12 02:25:15;;;;;;;4.85;3.65;;;;;;;-148.88;56.33;75448.19;4976035;28;20027;-85
2022/08/12 02:27:47;;;;;;;8.98;3.65;;;;;;;-148.88;56.00;75440.06;4976171;28;20127;-87
2022/08/12 02:30:19;;;;;;;7.63;3.78;;;;;;;-148.88;56.01;75456.31;4976230;28;20038;-87
2022/08/12 02:32:47;;;;;;;8.02;3.50;;;;;;;-148.88;56.58;75484.75;4976122;28;20023;-87
2022/08/12 02:35:18;;;;;;;8.18;3.90;;;;;;;-148.88;57.31;75492.88;4976061;28;20062;-84
2022/08/12 02:37:45;;;;;;;7.95;3.55;;;;;;;-148.88;57.15;75488.81;4974688;28;20492;-87
2022/08/12 02:40:13;;;;;;;4.90;3.58;;;;;;;-148.88;56.81;75480.69;4990859;28;20023;-87
2022/08/12 02:42:57;;;;;;;8.40;3.70;;;;;;;-148.88;56.50;75470.53;4975873;28;20026;-89
2022/08/12 02:45:33;;;;;;;6.68;4.07;;;;;;;-148.88;56.54;75458.34;4974759;28;20069;-87
2022/08/12 02:48:05;;;;;;;9.75;4.68;;;;;;;-148.88;56.88;75456.31;4990899;28;20105;-87
2022/08/12 02:50:33;;;;;;;13.68;5.57;;;;;;;-148.88;57.95;75456.31;4975818;28;20497;-88
2022/08/12 02:52:59;;;;;;;9.75;5.18;;;;;;;-148.88;57.75;75452.25;4975915;28;20037;-87
2022/08/12 02:55:27;;;;;;;6.28;4.53;;;;;;;-148.88;57.81;75448.19;4974695;28;20023;-88
2022/08/12 02:57:54;;;;;;;9.95;5.97;;;;;;;-148.88;57.75;75452.25;4990352;28;20027;-88
2022/08/12 03:00:20;;;;;;;6.47;4.97;;;;;;;-148.88;58.30;75454.28;4974752;28;20030;-87
2022/08/12 03:02:46;;;;;;;8.00;5.20;;;;;;;-148.88;58.20;75460.38;4974226;28;20111;-88
2022/08/12 03:05:16;;;;;;;7.13;5.00;;;;;;;-148.88;57.98;75464.44;4974630;28;20385;-88
2022/08/12 03:07:52;;;;;;;6.80;5.00;;;;;;;-148.88;58.54;75468.50;4974317;28;20085;-88
2022/08/12 03:10:21;;;;;;;9.00;4.93;;;;;;;-148.88;58.43;75474.59;4974472;28;20029;-87
2022/08/12 03:12:52;;;;;;;8.45;4.75;;;;;;;-148.88;59.29;75478.66;4990069;28;20114;-87
2022/08/12 03:15:21;;;;;;;8.88;4.60;;;;;;;-148.88;59.17;75478.66;4990370;28;20030;-87
2022/08/12 03:18:13;;;;;;;7.45;4.30;;;;;;;-148.88;59.01;75472.56;4974010;28;20093;-88
2022/08/12 03:20:39;;;;;;;7.95;4.50;;;;;;;-148.88;57.94;75480.69;4990344;28;20054;-86
2022/08/12 03:23:08;;;;;;;7.15;4.25;;;;;;;-148.88;58.31;75480.69;4990002;28;20023;-87
2022/08/12 03:25:37;;;;;;;8.85;4.68;;;;;;;-148.88;57.71;75478.66;4973890;28;20077;-88
2022/08/12 03:28:04;;;;;;;7.90;4.65;;;;;;;-148.88;57.36;75472.56;4989704;28;20035;-88
2022/08/12 03:30:31;;;;;;;5.45;4.38;;;;;;;-148.88;57.65;75474.59;4990002;28;20085;-87
2022/08/12 03:32:58;;;;;;;8.02;4.40;;;;;;;-148.88;57.43;75470.53;4973989;28;20019;-88
2022/08/12 03:35:31;;;;;;;7.32;4.55;;;;;;;-148.88;57.08;75470.53;4974872;28;20037;-89
2022/08/12 03:37:59;;;;;;;4.75;4.20;;;;;;;-148.88;57.05;75470.53;4973624;28;20504;-88
2022/08/12 04:02:33;;;;;;;6.40;5.07;;;;;;;-148.88;57.90;75488.81;4974773;28;20033;-87
2022/08/12 04:04:59;;;;;;;6.63;4.85;;;;;;;-148.88;58.48;75494.91;4973315;28;20460;-88
2022/08/12 04:07:26;;;;;;;6.68;5.15;;;;;;;-148.88;58.62;75513.19;4972712;28;20525;-87
2022/08/12 04:09:52;;;;;;;7.63;4.65;;;;;;;-148.88;58.82;75505.06;4973171;28;20026;-87
2022/08/12 04:15:03;;;;;;;9.10;5.63;;;;;;;-148.88;59.25;75541.63;4975238;28;20034;-88
2022/08/12 04:17:29;;;;;;;7.30;5.30;;;;;;;-148.88;59.99;75563.97;4974396;28;20026;-87
2022/08/12 04:19:58;;;;;;;10.95;5.07;;;;;;;-148.88;60.54;75574.13;4973115;28;20022;-88
2022/08/12 04:22:28;;;;;;;7.25;4.65;;;;;;;-148.88;60.49;75574.13;4974223;28;20022;-87
2022/08/12 04:24:54;;;;;;;5.18;4.35;;;;;;;-148.88;60.37;75586.31;4973160;28;20029;-87
2022/08/12 04:27:19;;;;;;;5.82;4.22;;;;;;;-148.88;60.31;75568.03;4973045;28;20085;-89
2022/08/12 04:29:45;;;;;;;9.43;4.55;;;;;;;-148.88;60.60;75582.22;4973180;28;20023;-87
2022/08/12 04:32:11;;;;;;;7.03;5.22;;;;;;;-148.88;60.33;75578.19;4972986;28;20378;-86
2022/08/12 04:34:37;;;;;;;8.10;5.93;;;;;;;-148.88;61.14;75574.13;4989700;28;20462;-89
2022/08/12 04:37:03;;;;;;;9.60;6.07;;;;;;;-148.88;61.41;75582.22;4974926;28;20039;-86
2022/08/12 04:39:29;;;;;;;7.80;5.85;;;;;;;-148.88;61.37;75580.22;4973493;28;20026;-86
2022/08/12 04:41:54;;;;;;;8.52;6.22;;;;;;;-148.88;61.06;75578.19;4974483;28;20030;-87
2022/08/12 04:44:19;;;;;;;8.70;6.13;;;;;;;-148.88;61.34;75566.00;4974064;28;20081;-85
2022/08/12 04:46:45;;;;;;;10.55;6.03;;;;;;;-148.88;61.40;75561.94;4989230;28;20058;-87
2022/08/12 04:49:10;;;;;;;9.65;5.93;;;;;;;-148.88;60.88;75559.91;4973037;28;20031;-86
2022/08/12 04:51:36;;;;;;;9.43;6.43;;;;;;;-148.88;60.90;75557.88;4989101;28;20066;-85
2022/08/12 04:54:03;;;;;;;8.88;5.90;;;;;;;-148.88;60.79;75545.69;4974277;28;20042;-86
2022/08/12 04:56:29;;;;;;;11.07;6.50;;;;;;;-148.88;60.89;75533.50;4989495;28;20555;-86
2022/08/12 04:58:56;;;;;;;8.00;5.20;;;;;;;-148.88;61.19;75535.53;4990422;28;20026;-85
2022/08/12 05:01:26;;;;;;;6.13;4.82;;;;;;;-148.88;61.37;75529.44;4973247;28;20497;-86
2022/08/12 05:03:53;;;;;;;7.65;5.15;;;;;;;-148.88;61.47;75527.41;4972648;28;20481;-85
2022/08/12 05:06:19;;;;;;;8.35;5.05;;;;;;;-148.88;61.85;75521.31;4974681;28;20442;-87
2022/08/12 05:08:44;;;;;;;6.85;4.97;;;;;;;-148.88;61.69;75515.22;4973894;28;20031;-85
2022/08/12 05:11:09;;;;;;;10.43;5.07;;;;;;;-148.88;61.51;75509.13;4973829;28;20023;-83
2022/08/12 05:13:37;;;;;;;8.93;4.95;;;;;;;-148.88;61.19;75509.13;4974376;28;20027;-86
2022/08/12 05:16:07;;;;;;;8.70;5.38;;;;;;;-148.88;61.60;75505.06;4973045;28;20022;-85
2022/08/12 05:18:38;;;;;;;6.13;5.00;;;;;;;-148.88;61.42;75496.94;4973032;28;20023;-85
2022/08/12 05:21:06;;;;;;;7.03;4.57;;;;;;;-148.88;61.45;75492.88;4976232;28;20122;-85
2022/08/12 05:23:32;;;;;;;7.85;4.85;;;;;;;-148.88;62.60;75488.81;4977036;28;20050;-85
2022/08/12 05:25:59;;;;;;;8.00;5.47;;;;;;;-148.88;62.85;75478.66;4977335;28;20023;-87
2022/08/12 05:28:26;;;;;;;8.15;5.03;;;;;;;-148.88;64.22;75484.75;4976359;28;20051;-84
2022/08/12 05:30:52;;;;;;;8.93;6.15;;;;;;;-148.88;65.80;75474.59;4976710;28;20473;-84
2022/08/12 05:33:17;;;;;;;8.30;5.80;;;;;;;-148.88;66.22;75462.41;4992839;28;20015;-84
2022/08/12 05:35:44;;;;;;;8.57;5.70;;;;;;;-148.88;64.84;75458.34;4977065;28;20033;-84
2022/08/12 05:38:58;;;;;;;9.48;5.20;;;;;;;-148.88;64.46;75452.25;4976948;28;20177;-85
2022/08/12 05:40:59;;;;;;;7.35;4.97;;;;;;;-148.88;64.55;75448.19;4968164;28;20381;-86
2022/08/12 05:43:25;;;;;;;10.15;5.40;;;;;;;-148.88;64.52;75444.13;4983831;28;20061;-86
2022/08/12 05:45:50;;;;;;;8.32;5.82;;;;;;;-148.88;64.25;75440.06;4985475;28;20122;-83
2022/08/12 05:48:16;;;;;;;8.40;5.57;;;;;;;-148.88;63.97;75431.94;4995566;28;20023;-85
2022/08/12 05:50:43;;;;;;;12.98;5.28;;;;;;;-148.88;63.59;75436.00;5000700;28;20386;-85
2022/08/12 05:53:09;;;;;;;9.95;5.53;;;;;;;-148.88;62.32;75433.97;4985584;28;20118;-86
2022/08/12 05:55:35;;;;;;;11.00;5.68;;;;;;;-148.88;62.17;75431.94;4986080;28;20054;-85
2022/08/12 05:58:01;;;;;;;11.07;5.78;;;;;;;-148.88;61.54;75415.69;4983570;28;20385;-86
2022/08/12 06:00:30;;;;;;;7.63;4.70;;;;;;;-148.88;60.41;75419.75;4984902;28;20050;-86
2022/08/12 06:02:59;;;;;;;6.35;4.90;;;;;;;-148.88;59.14;75413.66;4986126;28;20094;-86
2022/08/12 06:05:36;;;;;;;9.30;4.90;;;;;;;-148.88;59.63;75407.56;4983542;28;20026;-86
2022/08/12 06:08:06;;;;;;;11.73;5.45;;;;;;;-148.88;60.11;75391.31;4984468;28;20031;-86
2022/08/12 06:10:33;;;;;;;10.52;5.45;;;;;;;-148.88;59.76;75385.22;4983264;28;20149;-85
2022/08/12 06:13:04;;;;;;;10.90;4.85;;;;;;;-148.88;59.59;75375.06;4981519;28;20022;-85
2022/08/12 06:15:31;;;;;;;7.53;4.75;;;;;;;-148.88;58.10;75373.03;4983808;28;20027;-85
2022/08/12 06:18:08;;;;;;;7.78;5.07;;;;;;;-148.88;58.25;75358.81;4982429;28;20034;-86
2022/08/12 06:20:34;;;;;;;15.07;5.15;;;;;;;-148.88;58.80;75362.88;4982695;28;20026;-85
2022/08/12 06:23:00;;;;;;;17.60;5.47;;;;;;;-148.88;58.91;75354.75;4983259;28;20022;-85
2022/08/12 06:25:27;;;;;;;7.93;4.68;;;;;;;-148.88;58.67;75344.59;4981360;28;20050;-86
2022/08/12 06:27:55;;;;;;;6.50;4.57;;;;;;;-148.88;57.99;75332.41;4994326;28;20031;-83
2022/08/12 06:30:21;;;;;;;9.90;4.47;;;;;;;-148.88;57.61;75324.28;4990937;28;20115;-84
2022/08/12 06:32:50;;;;;;;7.15;4.95;;;;;;;-148.88;56.85;75314.13;4975062;28;20054;-83
2022/08/12 06:35:16;;;;;;;9.23;4.80;;;;;;;-148.88;57.38;75306.00;4975995;28;20023;-83
2022/08/12 06:37:44;;;;;;;9.20;5.10;;;;;;;-148.88;57.22;75297.88;4976482;28;20022;-83
2022/08/12 06:40:09;;;;;;;9.57;4.57;;;;;;;-148.88;57.22;75279.59;4975599;28;20019;-84
2022/08/12 06:42:50;;;;;;;7.72;4.45;;;;;;;-148.88;56.92;75277.59;4974795;28;20494;-84
2022/08/12 06:45:19;;;;;;;9.77;4.50;;;;;;;-148.88;57.36;75261.34;4974863;28;20026;-82
2022/08/12 06:47:45;;;;;;;10.10;4.45;;;;;;;-148.88;55.54;75245.09;4976349;28;20029;-84
2022/08/12 06:50:15;;;;;;;8.00;4.28;;;;;;;-148.88;56.26;75230.88;4974983;28;20031;-84
2022/08/12 06:52:44;;;;;;;10.90;4.68;;;;;;;-148.88;55.86;75216.66;4991135;28;20053;-84
2022/08/12 06:55:19;;;;;;;12.43;4.45;;;;;;;-148.88;54.93;75206.50;4974759;28;20031;-84
2022/08/12 06:58:00;;;;;;;5.55;3.72;;;;;;;-148.88;54.11;75192.28;4992179;28;20022;-83
2022/08/12 07:00:37;;;;;;;8.52;3.85;;;;;;;-148.88;53.81;75184.16;4975093;28;20113;-83
2022/08/12 07:03:04;;;;;;;10.73;4.28;;;;;;;-148.88;53.99;75157.75;4975902;28;20027;-85
2022/08/12 07:05:30;;;;;;;6.55;3.70;;;;;;;-148.88;53.76;75145.56;4975754;28;20030;-83
2022/08/12 07:07:58;;;;;;;6.18;3.88;;;;;;;-148.88;52.66;75137.44;4975545;28;20022;-84
2022/08/12 07:10:24;;;;;;;7.45;4.40;;;;;;;-148.88;53.94;75127.28;4974248;28;20030;-83
2022/08/12 07:12:53;;;;;;;6.05;3.83;;;;;;;-148.88;51.27;75098.84;4974674;28;20026;-84
2022/08/12 07:15:23;;;;;;;8.65;3.65;;;;;;;-148.88;52.70;75098.84;4975639;28;20023;-83
2022/08/12 07:17:48;;;;;;;6.75;3.40;;;;;;;-148.88;49.77;75082.63;4990778;28;20105;-84
2022/08/12 07:20:15;;;;;;;5.28;3.40;;;;;;;-148.88;49.32;75082.63;4990787;28;20065;-84
2022/08/12 07:22:40;;;;;;;7.15;3.38;;;;;;;-148.88;48.67;75064.34;4974333;28;20027;-84
2022/08/12 07:27:53;;;;;;;7.13;3.38;;;;;;;-148.88;46.92;75027.78;4976113;28;20527;-84
2022/08/12 07:30:19;;;;;;;4.45;3.25;;;;;;;-148.88;46.33;75017.63;4974381;28;20105;-83
2022/08/12 07:32:48;;;;;;;6.38;3.22;;;;;;;-148.88;47.38;75001.38;4974625;28;20125;-83
2022/08/12 07:35:14;;;;;;;4.75;3.40;;;;;;;-148.88;48.25;74993.25;4991481;28;20445;-83
2022/08/12 07:37:40;;;;;;;5.15;3.72;;;;;;;-148.88;48.02;74968.88;4976070;28;20061;-83
2022/08/12 07:40:10;;;;;;;6.70;3.92;;;;;;;-148.88;48.44;74958.72;4975862;28;20453;-84
2022/08/12 07:42:36;;;;;;;5.60;3.58;;;;;;;-148.88;47.45;74942.47;4975533;28;20038;-84
2022/08/12 07:45:03;;;;;;;7.68;3.45;;;;;;;-148.88;47.09;74928.28;4974829;28;20102;-84
2022/08/12 07:47:29;;;;;;;8.05;3.80;;;;;;;-148.88;46.63;74903.91;4989668;28;20030;-84
2022/08/12 07:49:55;;;;;;;7.32;3.17;;;;;;;-148.88;47.43;74905.94;4973799;28;20096;-84
2022/08/12 07:52:20;;;;;;;7.75;3.10;;;;;;;-148.88;44.82;74863.28;4973477;28;20488;-85
2022/08/12 07:54:46;;;;;;;4.82;3.05;;;;;;;-148.88;44.49;74857.19;4973659;28;20031;-84
2022/08/12 07:57:14;;;;;;;5.32;3.00;;;;;;;-148.88;44.66;74863.28;4989723;28;20493;-85
2022/08/12 07:59:39;;;;;;;9.25;3.28;;;;;;;-148.88;45.22;74851.09;4973824;28;20122;-85
2022/08/12 08:02:08;;;;;;;5.07;2.78;;;;;;;-148.88;43.82;74830.78;4973908;28;20062;-84
2022/08/12 08:07:18;;;;;;;6.45;3.38;;;;;;;-148.88;42.37;74796.28;4975140;28;20433;-85
2022/08/12 08:09:44;;;;;;;7.45;3.10;;;;;;;-148.88;41.67;74775.97;4973488;28;20023;-84
2022/08/12 08:14:54;;;;;;;6.63;2.80;;;;;;;-148.88;41.95;74753.63;4975088;28;20425;-85
2022/08/12 08:17:21;;;;;;;5.15;2.80;;;;;;;-148.88;42.16;74737.38;4989802;28;20061;-84
2022/08/12 08:19:54;;;;;;;7.35;3.40;;;;;;;-148.88;40.90;74729.25;4973133;28;20023;-85
2022/08/12 08:22:20;;;;;;;7.93;2.80;;;;;;;-148.88;40.68;74708.94;4973723;28;20029;-84
2022/08/12 08:24:45;;;;;;;5.22;2.50;;;;;;;-148.88;40.82;74680.53;4973084;28;20022;-85
2022/08/12 08:27:11;;;;;;;6.00;2.97;;;;;;;-148.88;38.76;74668.34;4972973;28;20034;-84
2022/08/12 08:29:36;;;;;;;5.43;2.50;;;;;;;-148.88;40.69;74660.22;4974475;28;20038;-84
2022/08/12 08:32:06;;;;;;;5.10;2.50;;;;;;;-148.88;39.35;74646.00;4974128;28;20027;-84
2022/08/12 08:34:34;;;;;;;5.72;2.45;;;;;;;-148.88;38.51;74635.84;4974555;28;20383;-83
2022/08/12 08:36:59;;;;;;;4.72;2.50;;;;;;;-148.88;38.08;74611.47;4974709;28;20054;-84
2022/08/12 08:39:26;;;;;;;5.95;2.40;;;;;;;-148.88;36.80;74587.13;4973276;28;20058;-84
2022/08/12 08:44:39;;;;;;;8.70;2.60;;;;;;;-148.88;37.53;74550.56;4974318;28;20051;-86
2022/08/12 08:47:05;;;;;;;5.85;2.35;;;;;;;-148.88;37.29;74548.53;4972980;28;20033;-84
2022/08/12 08:49:31;;;;;;;6.35;2.33;;;;;;;-148.88;36.95;74530.25;4973797;28;20078;-84
2022/08/12 08:51:56;;;;;;;5.50;2.50;;;;;;;-148.88;37.00;74509.94;4974523;28;20031;-84
2022/08/12 08:54:23;;;;;;;5.18;2.30;;;;;;;-148.88;37.93;74497.78;4976153;28;20109;-86
2022/08/12 08:56:49;;;;;;;5.43;2.30;;;;;;;-148.88;36.94;74467.31;4993637;28;20035;-84
2022/08/12 08:59:21;;;;;;;4.18;2.35;;;;;;;-148.88;36.91;74453.09;4977581;28;20114;-86
2022/08/12 09:01:47;;;;;;;4.93;2.20;;;;;;;-148.88;36.24;74420.59;4978074;28;20074;-84
2022/08/12 09:04:13;;;;;;;5.43;2.50;;;;;;;-148.88;36.32;74414.50;4977941;28;20061;-83
2022/08/12 09:06:40;;;;;;;4.97;2.15;;;;;;;-148.88;34.79;74396.25;4976631;28;20105;-83
2022/08/12 09:09:06;;;;;;;4.43;2.30;;;;;;;-148.88;34.20;74367.81;4993890;28;20109;-84
2022/08/12 09:14:16;;;;;;;2.83;1.83;;;;;;;-148.88;31.96;74315.03;4978910;28;20042;-85
2022/08/12 09:16:42;;;;;;;5.93;2.30;;;;;;;-148.88;32.86;74315.03;4976588;28;20023;-86
2022/08/12 09:19:09;;;;;;;3.35;1.80;;;;;;;-148.88;32.98;74286.59;4976598;28;20104;-85
2022/08/12 09:21:35;;;;;;;5.25;1.90;;;;;;;-148.88;32.52;74258.16;4976750;28;20437;-84
2022/08/12 09:24:00;;;;;;;3.20;1.90;;;;;;;-148.88;31.85;74237.88;4976234;28;20031;-85
2022/08/12 09:26:29;;;;;;;4.38;2.00;;;;;;;-148.88;32.91;74213.50;4976989;28;20026;-88
2022/08/12 09:28:56;;;;;;;3.42;2.00;;;;;;;-148.88;32.17;74189.13;4976789;28;20070;-85
2022/08/12 09:31:22;;;;;;;5.03;1.95;;;;;;;-148.88;31.16;74160.72;4978438;28;20027;-85
2022/08/12 09:33:49;;;;;;;3.25;1.98;;;;;;;-148.88;29.82;74154.63;4977739;28;20030;-85
2022/08/12 09:36:18;;;;;;;4.10;1.90;;;;;;;-148.88;29.81;74148.53;4992749;28;20059;-86
2022/08/12 09:38:44;;;;;;;3.75;2.00;;;;;;;-148.88;29.80;74132.28;4992307;28;20580;-85
2022/08/12 09:41:10;;;;;;;6.90;1.80;;;;;;;-148.88;29.42;74079.50;4993598;28;20078;-85
2022/08/12 09:46:20;;;;;;;3.28;2.05;;;;;;;-148.88;29.16;74059.19;4977356;28;20089;-86
2022/08/12 09:48:45;;;;;;;2.90;1.90;;;;;;;-148.88;29.70;74042.94;4976011;28;20023;-86
2022/08/12 09:51:11;;;;;;;4.78;2.10;;;;;;;-148.88;29.09;74026.72;4976072;28;20408;-86
2022/08/12 09:53:38;;;;;;;4.25;1.90;;;;;;;-148.88;29.39;74014.53;4978009;28;20023;-85
2022/08/12 09:56:04;;;;;;;3.65;1.92;;;;;;;-148.88;28.35;73977.97;4975769;28;20512;-84
2022/08/12 09:58:29;;;;;;;3.25;2.10;;;;;;;-148.88;28.82;73977.97;4975590;28;20023;-84
2022/08/12 10:00:56;;;;;;;3.88;1.67;;;;;;;-148.88;28.43;73957.69;4975603;28;20022;-85
2022/08/12 10:03:25;;;;;;;2.25;1.70;;;;;;;-148.88;27.70;73939.41;4991720;28;20035;-84
2022/08/12 10:05:51;;;;;;;3.17;1.65;;;;;;;-148.88;27.10;73941.44;4974546;28;20214;-84
2022/08/12 10:08:17;;;;;;;4.15;1.90;;;;;;;-148.88;26.74;73919.09;4975696;28;20022;-85
2022/08/12 10:13:40;;;;;;;2.92;1.70;;;;;;;-148.88;26.81;73898.78;4977386;28;20085;-85
2022/08/12 10:16:07;;;;;;;2.85;1.70;;;;;;;-148.88;27.25;73864.28;4975720;28;20055;-85
2022/08/12 10:18:38;;;;;;;3.88;2.00;;;;;;;-148.88;27.10;73854.13;4975602;28;20383;-85
2022/08/12 10:21:08;;;;;;;8.70;2.20;;;;;;;-148.88;27.70;73831.81;4975765;28;20068;-85
2022/08/12 10:23:35;;;;;;;3.92;1.60;;;;;;;-148.88;27.31;73821.66;4974791;28;20025;-85
2022/08/12 10:31:29;;;;;;;3.05;1.77;;;;;;;-148.88;27.44;73803.38;4977235;28;20061;-85
2022/08/12 10:33:55;;;;;;;3.63;1.70;;;;;;;-148.88;27.25;73774.94;4977011;28;20050;-81
2022/08/12 10:36:21;;;;;;;4.13;2.00;;;;;;;-148.88;26.49;73766.84;4992198;28;20063;-83
2022/08/12 10:38:46;;;;;;;4.65;2.10;;;;;;;-148.88;26.50;73738.41;4992466;28;20029;-81
2022/08/12 10:43:55;;;;;;;3.80;1.70;;;;;;;-148.88;26.26;73744.50;4977965;28;20077;-83
2022/08/12 10:46:21;;;;;;;4.65;2.20;;;;;;;-148.88;26.08;73707.97;4979757;28;20027;-83
2022/08/12 10:48:47;;;;;;;3.67;2.15;;;;;;;-148.88;25.87;73728.25;4977903;28;20030;-84
2022/08/12 10:51:13;;;;;;;4.13;1.80;;;;;;;-148.88;26.71;73718.09;4992175;28;20023;-84
2022/08/12 10:53:40;;;;;;;6.07;1.73;;;;;;;-148.88;25.63;73697.81;4992362;28;20023;-84
2022/08/12 10:56:06;;;;;;;4.82;2.00;;;;;;;-148.88;25.26;73673.44;4975628;28;20501;-83
2022/08/12 10:58:35;;;;;;;7.45;2.05;;;;;;;-148.88;26.16;73653.16;4992178;28;20027;-83
2022/08/12 11:01:04;;;;;;;3.63;1.95;;;;;;;-148.88;25.50;73665.31;4976225;28;20132;-83
2022/08/12 11:03:33;;;;;;;4.25;1.90;;;;;;;-148.88;25.79;73638.94;4976084;28;20470;-83
2022/08/12 11:05:58;;;;;;;3.90;2.10;;;;;;;-148.88;26.18;73653.16;4991001;28;20031;-83
2022/08/12 11:08:26;;;;;;;4.45;2.10;;;;;;;-148.88;25.74;73671.41;4974959;28;20122;-84
2022/08/12 11:10:52;;;;;;;6.15;1.98;;;;;;;-148.88;25.85;73643.00;4975716;28;20086;-84
2022/08/12 11:13:18;;;;;;;2.50;1.80;;;;;;;-148.88;25.30;73661.25;4976063;28;20593;-84
2022/08/12 11:15:44;;;;;;;5.35;2.10;;;;;;;-148.88;25.94;73651.13;4976354;28;20027;-84
2022/08/12 11:18:10;;;;;;;2.95;1.73;;;;;;;-148.88;26.01;73643.00;4976541;28;20166;-84
2022/08/12 11:20:35;;;;;;;3.60;2.13;;;;;;;-148.88;25.11;73632.84;4992459;28;20054;-84
2022/08/12 11:23:02;;;;;;;4.60;1.67;;;;;;;-148.88;25.38;73588.19;4976322;28;20113;-84
2022/08/12 11:25:27;;;;;;;7.13;2.00;;;;;;;-148.88;25.15;73567.88;4992098;28;20026;-84
2022/08/12 11:27:52;;;;;;;3.42;1.98;;;;;;;-148.88;25.50;73584.13;4991213;28;20178;-84
2022/08/12 11:30:18;;;;;;;3.47;1.80;;;;;;;-148.88;25.69;73531.34;4976065;28;20469;-84
2022/08/12 11:32:43;;;;;;;3.25;1.83;;;;;;;-148.88;24.46;73571.94;4975212;28;20022;-83
2022/08/12 11:35:08;;;;;;;4.85;1.83;;;;;;;-148.88;24.60;73645.03;4976401;28;20026;-81
2022/08/12 11:37:36;;;;;;;2.35;1.67;;;;;;;-148.88;25.17;73618.63;4974971;28;20022;-83
2022/08/12 11:40:02;;;;;;;7.38;1.90;;;;;;;-148.88;24.72;73608.47;4976768;28;20050;-82
2022/08/12 11:42:27;;;;;;;3.33;1.90;;;;;;;-148.88;24.53;73569.91;4974179;28;20118;-84
2022/08/12 11:44:53;;;;;;;4.90;1.88;;;;;;;-148.88;24.10;73622.69;4990308;28;20121;-83
2022/08/12 11:47:18;;;;;;;4.53;1.57;;;;;;;-148.88;24.83;73598.31;4989999;28;20041;-82
2022/08/12 11:49:43;;;;;;;2.65;1.70;;;;;;;-148.88;24.59;73563.81;4990872;28;20264;-83
2022/08/12 11:52:08;;;;;;;3.77;1.70;;;;;;;-148.88;24.54;73582.09;4990446;28;20049;-83
2022/08/12 11:54:34;;;;;;;6.22;1.92;;;;;;;-148.88;24.85;73527.28;4990936;28;20257;-84
2022/08/12 11:57:00;;;;;;;4.25;1.60;;;;;;;-148.88;24.64;73547.56;4990503;28;20053;-82
2022/08/12 11:59:26;;;;;;;4.07;1.90;;;;;;;-148.88;24.01;73541.50;4990735;28;20022;-84
2022/08/12 12:01:51;;;;;;;4.38;1.75;;;;;;;-148.88;24.26;73547.56;4975451;28;20031;-84
2022/08/12 12:04:16;;;;;;;4.95;1.65;;;;;;;-148.88;24.07;73498.84;4991346;28;20085;-84
2022/08/12 12:06:42;;;;;;;3.17;1.65;;;;;;;-148.88;25.06;73555.69;4990243;28;20401;-85
2022/08/12 12:09:07;;;;;;;6.43;2.03;;;;;;;-148.88;25.27;73511.03;4990207;28;20058;-83
2022/08/12 12:11:32;;;;;;;2.67;1.60;;;;;;;-148.88;24.62;73474.50;4990448;28;20077;-84
2022/08/12 12:13:58;;;;;;;4.53;1.63;;;;;;;-148.88;24.28;73515.09;4976503;28;20023;-83
2022/08/12 12:16:23;;;;;;;4.00;1.60;;;;;;;-148.88;23.91;73498.84;4990555;28;20062;-84
2022/08/12 12:18:48;;;;;;;3.60;1.70;;;;;;;-148.88;23.93;73513.06;4991036;28;20382;-84
2022/08/12 12:21:15;;;;;;;3.08;1.58;;;;;;;-148.88;24.06;73506.97;4973279;28;20401;-83
2022/08/12 12:23:40;;;;;;;7.20;2.08;;;;;;;-148.88;23.88;73539.47;4989551;28;20037;-83
2022/08/12 12:26:06;;;;;;;4.65;1.80;;;;;;;-148.88;24.07;73515.09;4989956;28;20023;-83
2022/08/12 12:28:33;;;;;;;3.17;1.85;;;;;;;-148.88;24.01;73527.28;5078202;23;20046;-74
2022/08/12 12:30:59;;;;;;;2.40;1.50;;;;;;;-148.88;23.86;73506.97;4993900;28;20388;-74
2022/08/12 12:33:24;;;;;;;3.63;1.70;;;;;;;-148.88;23.67;73555.69;4993478;28;20029;-73
2022/08/12 12:35:50;;;;;;;4.03;1.50;;;;;;;-148.88;24.15;73506.97;4993434;28;20022;-74
2022/08/12 12:38:15;;;;;;;2.90;1.48;;;;;;;-148.88;23.82;73519.16;4993346;28;20030;-74
2022/08/12 12:40:44;;;;;;;4.55;1.83;;;;;;;-148.88;23.78;73543.50;4992043;28;20033;-73
2022/08/12 12:43:10;;;;;;;2.75;1.60;;;;;;;-148.88;23.84;73504.94;4993173;28;20508;-74
2022/08/12 12:45:40;;;;;;;4.05;1.70;;;;;;;-148.88;23.68;73531.34;4992070;28;20096;-73
2022/08/12 12:48:08;;;;;;;2.75;1.55;;;;;;;-148.88;23.86;73478.56;4993202;28;20030;-74
2022/08/12 12:50:36;;;;;;;6.00;1.90;;;;;;;-148.88;23.75;73492.75;4993276;28;20022;-74
2022/08/12 12:53:04;;;;;;;1.80;1.20;;;;;;;-148.88;23.44;73498.84;4993251;28;20027;-75
2022/08/12 12:55:34;;;;;;;4.18;1.55;;;;;;;-148.88;23.45;73511.03;4993204;28;20031;-74
2022/08/12 12:58:03;;;;;;;2.65;1.50;;;;;;;-148.88;23.52;73543.50;4993041;28;20050;-74
2022/08/12 13:00:30;;;;;;;3.20;1.70;;;;;;;-148.88;24.11;73460.28;4993206;28;20026;-74
2022/08/12 13:02:55;;;;;;;4.78;1.70;;;;;;;-148.88;24.06;73515.09;4993327;28;20438;-74
2022/08/12 13:05:30;;;;;;;2.33;1.50;;;;;;;-148.88;23.78;73539.47;4993207;28;20454;-74
2022/08/12 13:07:59;;;;;;;3.17;1.55;;;;;;;-148.88;23.87;73531.34;4992116;28;20034;-74
2022/08/12 13:10:25;;;;;;;2.70;1.50;;;;;;;-148.88;24.12;73482.63;4993174;28;20034;-74
2022/08/12 13:12:52;;;;;;;3.67;1.50;;;;;;;-148.88;23.87;73496.81;4993105;28;20026;-74
2022/08/12 13:15:18;;;;;;;2.95;1.58;;;;;;;-148.88;24.64;73446.06;4993491;28;20421;-74
2022/08/12 13:17:49;;;;;;;5.35;1.70;;;;;;;-148.88;24.27;73468.41;4993075;28;20034;-74